sensor_id;sensor_type;location;lat;lon;timestamp;pressure;altitude;pressure_sealevel;temperature;humidity
70758;BME280;59316;52.964;7.102;2023-05-21T00:03:38;102022.00;;;15.75;nan
70758;BME280;59316;52.964;7.102;2023-05-21T00:09:03;102015.03;;;15.74;nan
70758;BME280;59316;52.964;7.102;2023-05-21T00:14:25;102016.91;;;15.72;nan
70758;BME280;59316;52.964;7.102;2023-05-21T00:19:47;101999.44;;;15.71;nan
70758;BME280;59316;52.964;7.102;2023-05-21T00:25:09;101993.94;;;15.74;nan
70758;BME280;59316;52.964;7.102;2023-05-21T00:30:31;101995.94;;;15.70;nan
70758;BME280;59316;52.964;7.102;2023-05-21T00:35:52;101986.25;;;15.56;nan
70758;BME280;59316;52.964;7.102;2023-05-21T00:41:15;101984.16;;;15.62;nan
70758;BME280;59316;52.964;7.102;2023-05-21T00:46:38;101968.53;;;15.58;nan
70758;BME280;59316;52.964;7.102;2023-05-21T00:52:00;101970.72;;;15.52;nan
70758;BME280;59316;52.964;7.102;2023-05-21T00:57:24;101982.88;;;15.54;nan
70758;BME280;59316;52.964;7.102;2023-05-21T01:02:46;101974.88;;;15.41;nan
70758;BME280;59316;52.964;7.102;2023-05-21T01:08:07;101971.09;;;15.46;nan
70758;BME280;59316;52.964;7.102;2023-05-21T01:13:30;101968.00;;;15.39;nan
70758;BME280;59316;52.964;7.102;2023-05-21T01:18:53;101972.88;;;15.59;nan
70758;BME280;59316;52.964;7.102;2023-05-21T01:24:15;101963.09;;;15.47;nan
70758;BME280;59316;52.964;7.102;2023-05-21T01:29:36;101957.38;;;15.40;nan
70758;BME280;59316;52.964;7.102;2023-05-21T01:35:12;101957.53;;;15.37;nan
70758;BME280;59316;52.964;7.102;2023-05-21T01:40:44;101963.47;;;15.41;nan
70758;BME280;59316;52.964;7.102;2023-05-21T01:46:19;101954.41;;;15.31;nan
70758;BME280;59316;52.964;7.102;2023-05-21T01:51:42;101951.03;;;15.28;nan
70758;BME280;59316;52.964;7.102;2023-05-21T01:57:04;101949.34;;;15.27;nan
70758;BME280;59316;52.964;7.102;2023-05-21T02:02:25;101937.28;;;15.23;nan
70758;BME280;59316;52.964;7.102;2023-05-21T02:07:49;101941.34;;;15.29;nan
70758;BME280;59316;52.964;7.102;2023-05-21T02:13:10;101941.72;;;15.23;nan
70758;BME280;59316;52.964;7.102;2023-05-21T02:18:32;101943.78;;;15.18;nan
70758;BME280;59316;52.964;7.102;2023-05-21T02:23:54;101935.44;;;15.11;nan
70758;BME280;59316;52.964;7.102;2023-05-21T02:29:15;101940.69;;;15.11;nan
70758;BME280;59316;52.964;7.102;2023-05-21T02:34:36;101924.41;;;15.04;nan
70758;BME280;59316;52.964;7.102;2023-05-21T02:39:59;101925.53;;;15.00;nan
70758;BME280;59316;52.964;7.102;2023-05-21T02:45:22;101928.84;;;15.04;nan
70758;BME280;59316;52.964;7.102;2023-05-21T02:50:43;101931.00;;;14.97;nan
70758;BME280;59316;52.964;7.102;2023-05-21T02:56:05;101918.88;;;14.94;nan
70758;BME280;59316;52.964;7.102;2023-05-21T03:01:26;101924.13;;;14.94;nan
70758;BME280;59316;52.964;7.102;2023-05-21T03:06:49;101919.81;;;14.93;nan
70758;BME280;59316;52.964;7.102;2023-05-21T03:12:10;101911.81;;;14.95;nan
70758;BME280;59316;52.964;7.102;2023-05-21T03:17:32;101906.84;;;14.90;nan
70758;BME280;59316;52.964;7.102;2023-05-21T03:22:53;101918.09;;;14.78;nan
70758;BME280;59316;52.964;7.102;2023-05-21T03:28:15;101915.84;;;14.72;nan
70758;BME280;59316;52.964;7.102;2023-05-21T03:33:42;101914.88;;;14.58;nan
70758;BME280;59316;52.964;7.102;2023-05-21T03:39:24;101915.25;;;14.67;nan
70758;BME280;59316;52.964;7.102;2023-05-21T03:44:47;101921.75;;;14.61;nan
70758;BME280;59316;52.964;7.102;2023-05-21T03:50:27;101920.16;;;14.58;nan
70758;BME280;59316;52.964;7.102;2023-05-21T03:55:49;101923.53;;;14.60;nan
70758;BME280;59316;52.964;7.102;2023-05-21T04:01:10;101918.25;;;14.60;nan
70758;BME280;59316;52.964;7.102;2023-05-21T04:06:32;101935.09;;;14.72;nan
70758;BME280;59316;52.964;7.102;2023-05-21T04:11:53;101934.47;;;14.69;nan
70758;BME280;59316;52.964;7.102;2023-05-21T04:17:15;101924.00;;;14.67;nan
70758;BME280;59316;52.964;7.102;2023-05-21T04:22:37;101923.94;;;14.69;nan
70758;BME280;59316;52.964;7.102;2023-05-21T04:27:58;101923.72;;;14.72;nan
70758;BME280;59316;52.964;7.102;2023-05-21T04:33:20;101927.13;;;14.74;nan
70758;BME280;59316;52.964;7.102;2023-05-21T04:38:42;101921.00;;;14.73;nan
70758;BME280;59316;52.964;7.102;2023-05-21T04:44:07;101913.03;;;14.75;nan
70758;BME280;59316;52.964;7.102;2023-05-21T04:49:29;101915.56;;;14.76;nan
70758;BME280;59316;52.964;7.102;2023-05-21T04:54:52;101912.00;;;14.77;nan
70758;BME280;59316;52.964;7.102;2023-05-21T05:00:14;101917.25;;;15.06;nan
70758;BME280;59316;52.964;7.102;2023-05-21T05:05:36;101913.28;;;15.28;nan
70758;BME280;59316;52.964;7.102;2023-05-21T05:10:58;101914.22;;;15.27;nan
70758;BME280;59316;52.964;7.102;2023-05-21T05:16:20;101904.72;;;15.53;nan
70758;BME280;59316;52.964;7.102;2023-05-21T05:21:41;101889.41;;;15.46;nan
70758;BME280;59316;52.964;7.102;2023-05-21T05:27:04;101896.50;;;15.58;nan
70758;BME280;59316;52.964;7.102;2023-05-21T05:32:26;101892.91;;;15.59;nan
70758;BME280;59316;52.964;7.102;2023-05-21T05:37:48;101896.00;;;15.66;nan
70758;BME280;59316;52.964;7.102;2023-05-21T05:43:09;101896.91;;;15.79;nan
70758;BME280;59316;52.964;7.102;2023-05-21T05:48:31;101903.03;;;15.80;nan
70758;BME280;59316;52.964;7.102;2023-05-21T05:53:54;101906.31;;;15.83;nan
70758;BME280;59316;52.964;7.102;2023-05-21T05:59:16;101897.72;;;15.94;nan
70758;BME280;59316;52.964;7.102;2023-05-21T06:04:41;101894.53;;;15.89;nan
70758;BME280;59316;52.964;7.102;2023-05-21T06:10:05;101886.00;;;15.98;nan
70758;BME280;59316;52.964;7.102;2023-05-21T06:15:27;101887.09;;;16.08;nan
70758;BME280;59316;52.964;7.102;2023-05-21T06:20:48;101887.34;;;16.44;nan
70758;BME280;59316;52.964;7.102;2023-05-21T06:26:11;101880.16;;;16.46;nan
70758;BME280;59316;52.964;7.102;2023-05-21T06:31:33;101876.19;;;16.79;nan
70758;BME280;59316;52.964;7.102;2023-05-21T06:36:55;101885.91;;;16.91;nan
70758;BME280;59316;52.964;7.102;2023-05-21T06:42:16;101886.31;;;16.98;nan
70758;BME280;59316;52.964;7.102;2023-05-21T06:47:57;101889.28;;;17.44;nan
70758;BME280;59316;52.964;7.102;2023-05-21T06:53:19;101867.53;;;17.27;nan
70758;BME280;59316;52.964;7.102;2023-05-21T06:58:41;101865.13;;;17.48;nan
70758;BME280;59316;52.964;7.102;2023-05-21T07:04:02;101875.63;;;17.37;nan
70758;BME280;59316;52.964;7.102;2023-05-21T07:09:25;101866.94;;;17.48;nan
70758;BME280;59316;52.964;7.102;2023-05-21T07:14:46;101868.78;;;17.34;nan
70758;BME280;59316;52.964;7.102;2023-05-21T07:20:08;101858.13;;;17.60;nan
70758;BME280;59316;52.964;7.102;2023-05-21T07:25:33;101858.16;;;17.71;nan
70758;BME280;59316;52.964;7.102;2023-05-21T07:30:56;101857.81;;;17.76;nan
70758;BME280;59316;52.964;7.102;2023-05-21T07:36:25;101852.31;;;18.15;nan
70758;BME280;59316;52.964;7.102;2023-05-21T07:41:46;101847.78;;;18.28;nan
70758;BME280;59316;52.964;7.102;2023-05-21T07:47:08;101854.47;;;18.68;nan
70758;BME280;59316;52.964;7.102;2023-05-21T07:52:29;101857.72;;;18.94;nan
70758;BME280;59316;52.964;7.102;2023-05-21T07:57:52;101844.94;;;18.99;nan
70758;BME280;59316;52.964;7.102;2023-05-21T08:03:19;101845.03;;;19.20;nan
70758;BME280;59316;52.964;7.102;2023-05-21T08:08:42;101839.69;;;19.43;nan
70758;BME280;59316;52.964;7.102;2023-05-21T08:14:04;101834.88;;;19.37;nan
70758;BME280;59316;52.964;7.102;2023-05-21T08:19:25;101829.63;;;19.58;nan
70758;BME280;59316;52.964;7.102;2023-05-21T08:24:46;101830.50;;;19.80;nan
70758;BME280;59316;52.964;7.102;2023-05-21T08:30:08;101828.22;;;20.08;nan
70758;BME280;59316;52.964;7.102;2023-05-21T08:35:31;101838.50;;;20.01;nan
70758;BME280;59316;52.964;7.102;2023-05-21T08:41:03;101837.19;;;19.95;nan
70758;BME280;59316;52.964;7.102;2023-05-21T08:46:31;101838.50;;;20.22;nan
70758;BME280;59316;52.964;7.102;2023-05-21T08:51:54;101835.72;;;20.86;nan
70758;BME280;59316;52.964;7.102;2023-05-21T08:57:16;101823.25;;;21.56;nan
70758;BME280;59316;52.964;7.102;2023-05-21T09:02:40;101818.50;;;21.70;nan
70758;BME280;59316;52.964;7.102;2023-05-21T09:08:05;101827.63;;;21.67;nan
70758;BME280;59316;52.964;7.102;2023-05-21T09:13:46;101810.94;;;22.42;nan
70758;BME280;59316;52.964;7.102;2023-05-21T09:19:15;101808.75;;;23.21;nan
70758;BME280;59316;52.964;7.102;2023-05-21T09:24:40;101812.72;;;23.53;nan
70758;BME280;59316;52.964;7.102;2023-05-21T09:30:09;101818.53;;;24.10;nan
70758;BME280;59316;52.964;7.102;2023-05-21T09:35:32;101809.88;;;24.17;nan
70758;BME280;59316;52.964;7.102;2023-05-21T09:40:55;101815.00;;;24.71;nan
70758;BME280;59316;52.964;7.102;2023-05-21T09:46:20;101816.75;;;23.75;nan
70758;BME280;59316;52.964;7.102;2023-05-21T09:51:46;101813.56;;;23.89;nan
70758;BME280;59316;52.964;7.102;2023-05-21T09:57:07;101808.31;;;23.62;nan
70758;BME280;59316;52.964;7.102;2023-05-21T10:02:30;101800.84;;;23.47;nan
70758;BME280;59316;52.964;7.102;2023-05-21T10:08:00;101797.34;;;22.45;nan
70758;BME280;59316;52.964;7.102;2023-05-21T10:13:22;101801.56;;;22.75;nan
70758;BME280;59316;52.964;7.102;2023-05-21T10:18:44;101797.16;;;23.12;nan
70758;BME280;59316;52.964;7.102;2023-05-21T10:24:08;101782.75;;;23.23;nan
70758;BME280;59316;52.964;7.102;2023-05-21T10:29:30;101780.53;;;23.54;nan
70758;BME280;59316;52.964;7.102;2023-05-21T10:34:56;101775.63;;;23.86;nan
70758;BME280;59316;52.964;7.102;2023-05-21T10:40:19;101762.81;;;23.89;nan
70758;BME280;59316;52.964;7.102;2023-05-21T10:52:08;101750.44;;;25.17;nan
70758;BME280;59316;52.964;7.102;2023-05-21T10:57:53;101735.16;;;25.83;nan
70758;BME280;59316;52.964;7.102;2023-05-21T11:03:35;101728.06;;;26.24;nan
70758;BME280;59316;52.964;7.102;2023-05-21T11:09:10;101725.19;;;26.25;nan
70758;BME280;59316;52.964;7.102;2023-05-21T11:14:39;101724.50;;;26.71;nan
70758;BME280;59316;52.964;7.102;2023-05-21T11:20:10;101712.22;;;26.77;nan
70758;BME280;59316;52.964;7.102;2023-05-21T11:25:32;101723.06;;;26.83;nan
70758;BME280;59316;52.964;7.102;2023-05-21T11:31:47;101708.88;;;27.21;nan
70758;BME280;59316;52.964;7.102;2023-05-21T11:42:38;101682.03;;;27.74;nan
70758;BME280;59316;52.964;7.102;2023-05-21T11:48:00;101689.16;;;27.67;nan
70758;BME280;59316;52.964;7.102;2023-05-21T11:53:21;101695.75;;;28.61;nan
70758;BME280;59316;52.964;7.102;2023-05-21T11:58:43;101694.00;;;28.16;nan
70758;BME280;59316;52.964;7.102;2023-05-21T12:04:05;101692.53;;;28.50;nan
70758;BME280;59316;52.964;7.102;2023-05-21T12:09:26;101690.16;;;28.62;nan
70758;BME280;59316;52.964;7.102;2023-05-21T12:14:49;101687.69;;;28.24;nan
70758;BME280;59316;52.964;7.102;2023-05-21T12:20:14;101688.06;;;28.58;nan
70758;BME280;59316;52.964;7.102;2023-05-21T12:25:35;101687.50;;;29.06;nan
70758;BME280;59316;52.964;7.102;2023-05-21T12:30:56;101689.47;;;29.40;nan
70758;BME280;59316;52.964;7.102;2023-05-21T12:41:53;101691.03;;;29.56;nan
70758;BME280;59316;52.964;7.102;2023-05-21T12:47:15;101678.44;;;29.13;nan
70758;BME280;59316;52.964;7.102;2023-05-21T12:52:36;101678.50;;;29.77;nan
70758;BME280;59316;52.964;7.102;2023-05-21T12:58:05;101673.91;;;31.08;nan
70758;BME280;59316;52.964;7.102;2023-05-21T13:03:27;101669.38;;;31.08;nan
70758;BME280;59316;52.964;7.102;2023-05-21T13:08:48;101682.00;;;30.68;nan
70758;BME280;59316;52.964;7.102;2023-05-21T13:14:09;101678.94;;;31.04;nan
70758;BME280;59316;52.964;7.102;2023-05-21T13:19:31;101668.63;;;30.46;nan
70758;BME280;59316;52.964;7.102;2023-05-21T13:24:52;101661.25;;;30.82;nan
70758;BME280;59316;52.964;7.102;2023-05-21T13:30:14;101656.31;;;29.75;nan
70758;BME280;59316;52.964;7.102;2023-05-21T13:35:36;101659.94;;;30.57;nan
70758;BME280;59316;52.964;7.102;2023-05-21T13:40:57;101649.91;;;30.24;nan
70758;BME280;59316;52.964;7.102;2023-05-21T13:46:19;101646.63;;;29.87;nan
70758;BME280;59316;52.964;7.102;2023-05-21T13:51:41;101639.50;;;29.73;nan
70758;BME280;59316;52.964;7.102;2023-05-21T13:57:02;101639.22;;;28.61;nan
70758;BME280;59316;52.964;7.102;2023-05-21T14:02:24;101627.03;;;29.08;nan
70758;BME280;59316;52.964;7.102;2023-05-21T14:07:46;101630.63;;;29.44;nan
70758;BME280;59316;52.964;7.102;2023-05-21T14:13:07;101627.84;;;28.59;nan
70758;BME280;59316;52.964;7.102;2023-05-21T14:18:38;101627.97;;;28.94;nan
70758;BME280;59316;52.964;7.102;2023-05-21T14:24:00;101608.44;;;29.13;nan
70758;BME280;59316;52.964;7.102;2023-05-21T14:29:22;101622.72;;;28.64;nan
70758;BME280;59316;52.964;7.102;2023-05-21T14:34:43;101614.75;;;28.56;nan
70758;BME280;59316;52.964;7.102;2023-05-21T14:40:06;101607.78;;;28.03;nan
70758;BME280;59316;52.964;7.102;2023-05-21T14:45:27;101611.09;;;27.15;nan
70758;BME280;59316;52.964;7.102;2023-05-21T14:50:49;101623.84;;;26.52;nan
70758;BME280;59316;52.964;7.102;2023-05-21T14:56:11;101615.00;;;26.75;nan
70758;BME280;59316;52.964;7.102;2023-05-21T15:01:33;101609.50;;;27.44;nan
70758;BME280;59316;52.964;7.102;2023-05-21T15:06:54;101604.41;;;27.79;nan
70758;BME280;59316;52.964;7.102;2023-05-21T15:12:16;101609.13;;;28.50;nan
70758;BME280;59316;52.964;7.102;2023-05-21T15:17:37;101599.69;;;29.05;nan
70758;BME280;59316;52.964;7.102;2023-05-21T15:22:59;101596.31;;;28.31;nan
70758;BME280;59316;52.964;7.102;2023-05-21T15:28:35;101600.72;;;28.02;nan
70758;BME280;59316;52.964;7.102;2023-05-21T15:33:56;101599.84;;;27.95;nan
70758;BME280;59316;52.964;7.102;2023-05-21T15:39:19;101590.09;;;27.34;nan
70758;BME280;59316;52.964;7.102;2023-05-21T15:44:40;101592.13;;;27.32;nan
70758;BME280;59316;52.964;7.102;2023-05-21T15:50:02;101586.28;;;27.13;nan
70758;BME280;59316;52.964;7.102;2023-05-21T15:55:24;101591.72;;;27.43;nan
70758;BME280;59316;52.964;7.102;2023-05-21T16:00:45;101585.28;;;27.14;nan
70758;BME280;59316;52.964;7.102;2023-05-21T16:06:07;101587.03;;;27.07;nan
70758;BME280;59316;52.964;7.102;2023-05-21T16:11:28;101569.97;;;26.62;nan
70758;BME280;59316;52.964;7.102;2023-05-21T16:16:50;101575.38;;;26.53;nan
70758;BME280;59316;52.964;7.102;2023-05-21T16:22:11;101586.81;;;26.24;nan
70758;BME280;59316;52.964;7.102;2023-05-21T16:27:33;101582.69;;;26.13;nan
70758;BME280;59316;52.964;7.102;2023-05-21T16:32:55;101578.78;;;25.84;nan
70758;BME280;59316;52.964;7.102;2023-05-21T16:38:21;101572.06;;;25.97;nan
70758;BME280;59316;52.964;7.102;2023-05-21T16:43:43;101570.31;;;25.64;nan
70758;BME280;59316;52.964;7.102;2023-05-21T16:49:04;101568.88;;;25.45;nan
70758;BME280;59316;52.964;7.102;2023-05-21T16:54:26;101560.06;;;25.12;nan
70758;BME280;59316;52.964;7.102;2023-05-21T16:59:47;101557.44;;;24.54;nan
70758;BME280;59316;52.964;7.102;2023-05-21T17:05:09;101566.59;;;24.26;nan
70758;BME280;59316;52.964;7.102;2023-05-21T17:10:31;101561.53;;;24.15;nan
70758;BME280;59316;52.964;7.102;2023-05-21T17:15:52;101561.72;;;24.22;nan
70758;BME280;59316;52.964;7.102;2023-05-21T17:21:14;101558.19;;;24.13;nan
70758;BME280;59316;52.964;7.102;2023-05-21T17:26:36;101557.50;;;23.95;nan
70758;BME280;59316;52.964;7.102;2023-05-21T17:31:58;101554.94;;;23.85;nan
70758;BME280;59316;52.964;7.102;2023-05-21T17:37:20;101550.31;;;23.95;nan
70758;BME280;59316;52.964;7.102;2023-05-21T17:42:41;101533.63;;;24.01;nan
70758;BME280;59316;52.964;7.102;2023-05-21T17:48:03;101544.09;;;23.86;nan
70758;BME280;59316;52.964;7.102;2023-05-21T17:53:24;101548.22;;;23.72;nan
70758;BME280;59316;52.964;7.102;2023-05-21T17:58:46;101552.91;;;23.70;nan
70758;BME280;59316;52.964;7.102;2023-05-21T18:04:07;101551.69;;;23.65;nan
70758;BME280;59316;52.964;7.102;2023-05-21T18:09:29;101561.72;;;23.63;nan
70758;BME280;59316;52.964;7.102;2023-05-21T18:14:50;101554.50;;;23.55;nan
70758;BME280;59316;52.964;7.102;2023-05-21T18:20:12;101564.94;;;23.48;nan
70758;BME280;59316;52.964;7.102;2023-05-21T18:25:34;101572.13;;;23.21;nan
70758;BME280;59316;52.964;7.102;2023-05-21T18:30:55;101568.09;;;23.17;nan
70758;BME280;59316;52.964;7.102;2023-05-21T18:36:17;101567.94;;;22.92;nan
70758;BME280;59316;52.964;7.102;2023-05-21T18:41:39;101571.59;;;22.73;nan
70758;BME280;59316;52.964;7.102;2023-05-21T18:47:00;101569.53;;;22.49;nan
70758;BME280;59316;52.964;7.102;2023-05-21T18:52:22;101564.69;;;22.17;nan
70758;BME280;59316;52.964;7.102;2023-05-21T18:57:43;101559.81;;;21.94;nan
70758;BME280;59316;52.964;7.102;2023-05-21T19:03:05;101566.59;;;21.78;nan
70758;BME280;59316;52.964;7.102;2023-05-21T19:08:27;101558.09;;;21.65;nan
70758;BME280;59316;52.964;7.102;2023-05-21T19:13:48;101564.94;;;21.68;nan
70758;BME280;59316;52.964;7.102;2023-05-21T19:19:10;101564.91;;;21.40;nan
70758;BME280;59316;52.964;7.102;2023-05-21T19:24:31;101557.78;;;21.30;nan
70758;BME280;59316;52.964;7.102;2023-05-21T19:29:53;101558.81;;;21.20;nan
70758;BME280;59316;52.964;7.102;2023-05-21T19:35:14;101572.22;;;21.18;nan
70758;BME280;59316;52.964;7.102;2023-05-21T19:40:36;101572.44;;;21.07;nan
70758;BME280;59316;52.964;7.102;2023-05-21T19:45:58;101573.38;;;20.86;nan
70758;BME280;59316;52.964;7.102;2023-05-21T19:51:20;101576.91;;;20.67;nan
70758;BME280;59316;52.964;7.102;2023-05-21T19:56:41;101584.16;;;20.55;nan
70758;BME280;59316;52.964;7.102;2023-05-21T20:02:03;101581.75;;;20.42;nan
70758;BME280;59316;52.964;7.102;2023-05-21T20:07:25;101587.47;;;20.28;nan
70758;BME280;59316;52.964;7.102;2023-05-21T20:12:46;101576.28;;;20.24;nan
70758;BME280;59316;52.964;7.102;2023-05-21T20:18:08;101564.97;;;20.32;nan
70758;BME280;59316;52.964;7.102;2023-05-21T20:23:29;101566.22;;;20.18;nan
70758;BME280;59316;52.964;7.102;2023-05-21T20:28:51;101572.06;;;20.02;nan
70758;BME280;59316;52.964;7.102;2023-05-21T20:34:13;101560.88;;;19.98;nan
70758;BME280;59316;52.964;7.102;2023-05-21T20:39:34;101556.97;;;20.02;nan
70758;BME280;59316;52.964;7.102;2023-05-21T20:44:56;101551.66;;;20.02;nan
70758;BME280;59316;52.964;7.102;2023-05-21T20:50:17;101559.38;;;20.06;nan
70758;BME280;59316;52.964;7.102;2023-05-21T20:55:39;101548.28;;;20.00;nan
70758;BME280;59316;52.964;7.102;2023-05-21T21:01:04;101542.16;;;20.00;nan
70758;BME280;59316;52.964;7.102;2023-05-21T21:06:25;101544.25;;;20.06;nan
70758;BME280;59316;52.964;7.102;2023-05-21T21:11:47;101541.59;;;20.06;nan
70758;BME280;59316;52.964;7.102;2023-05-21T21:17:08;101542.19;;;20.10;nan
70758;BME280;59316;52.964;7.102;2023-05-21T21:22:30;101534.34;;;20.08;nan
70758;BME280;59316;52.964;7.102;2023-05-21T21:27:52;101527.34;;;20.07;nan
70758;BME280;59316;52.964;7.102;2023-05-21T21:33:13;101521.91;;;20.09;nan
70758;BME280;59316;52.964;7.102;2023-05-21T21:38:35;101525.50;;;19.98;nan
70758;BME280;59316;52.964;7.102;2023-05-21T21:43:57;101518.66;;;19.95;nan
70758;BME280;59316;52.964;7.102;2023-05-21T21:49:18;101530.34;;;19.93;nan
70758;BME280;59316;52.964;7.102;2023-05-21T21:54:40;101526.75;;;19.94;nan
70758;BME280;59316;52.964;7.102;2023-05-21T22:00:01;101542.50;;;19.85;nan
70758;BME280;59316;52.964;7.102;2023-05-21T22:05:24;101538.03;;;19.86;nan
70758;BME280;59316;52.964;7.102;2023-05-21T22:10:45;101541.34;;;19.78;nan
70758;BME280;59316;52.964;7.102;2023-05-21T22:16:06;101534.50;;;19.76;nan
70758;BME280;59316;52.964;7.102;2023-05-21T22:21:28;101528.22;;;19.77;nan
70758;BME280;59316;52.964;7.102;2023-05-21T22:26:49;101532.38;;;19.69;nan
70758;BME280;59316;52.964;7.102;2023-05-21T22:32:12;101531.50;;;19.59;nan
70758;BME280;59316;52.964;7.102;2023-05-21T22:37:33;101528.59;;;19.62;nan
70758;BME280;59316;52.964;7.102;2023-05-21T22:42:55;101532.19;;;19.51;nan
70758;BME280;59316;52.964;7.102;2023-05-21T22:48:17;101518.44;;;19.36;nan
70758;BME280;59316;52.964;7.102;2023-05-21T22:53:38;101509.19;;;19.31;nan
70758;BME280;59316;52.964;7.102;2023-05-21T22:59:00;101502.41;;;19.38;nan
70758;BME280;59316;52.964;7.102;2023-05-21T23:04:23;101526.53;;;19.35;nan
70758;BME280;59316;52.964;7.102;2023-05-21T23:09:55;101545.28;;;19.22;nan
70758;BME280;59316;52.964;7.102;2023-05-21T23:15:16;101538.13;;;19.13;nan
70758;BME280;59316;52.964;7.102;2023-05-21T23:20:38;101544.31;;;18.81;nan
70758;BME280;59316;52.964;7.102;2023-05-21T23:26:00;101561.16;;;18.59;nan
70758;BME280;59316;52.964;7.102;2023-05-21T23:31:22;101555.59;;;18.62;nan
70758;BME280;59316;52.964;7.102;2023-05-21T23:36:43;101543.13;;;18.52;nan
70758;BME280;59316;52.964;7.102;2023-05-21T23:42:05;101542.84;;;18.55;nan
70758;BME280;59316;52.964;7.102;2023-05-21T23:47:27;101533.34;;;18.53;nan
70758;BME280;59316;52.964;7.102;2023-05-21T23:52:48;101530.00;;;18.51;nan
70758;BME280;59316;52.964;7.102;2023-05-21T23:58:10;101525.19;;;18.56;nan
